Time;durP1;ratioP1;P1;durP2;ratioP2;P2;SDS_P1;SDS_P2;PMS_P1;PMS_P2;Temp;Humidity;BMP_temperature;BMP_pressure;BME280_temperature;BME280_humidity;BME280_pressure;Samples;Min_cycle;Max_cycle;Signal;HPM_P1;HPM_P2
2023/09/23 00:01:39;;;;;;;3.83;3.25;;;12.90;99.90;;;;;;5023127;27;89170;-43
2023/09/23 00:04:05;;;;;;;3.90;3.60;;;12.80;99.90;;;;;;5023952;27;89687;-46
2023/09/23 00:06:31;;;;;;;5.43;4.60;;;12.90;99.90;;;;;;5023822;28;88828;-44
2023/09/23 00:08:56;;;;;;;6.18;4.00;;;12.80;99.90;;;;;;5023172;28;89953;-38
2023/09/23 00:11:22;;;;;;;5.45;4.60;;;12.80;99.90;;;;;;5023969;28;89793;-40
2023/09/23 00:13:48;;;;;;;4.55;3.92;;;12.80;99.90;;;;;;5023553;28;89268;-38
2023/09/23 00:16:14;;;;;;;4.82;4.30;;;12.80;99.90;;;;;;5023046;28;90247;-44
2023/09/23 00:18:40;;;;;;;4.82;4.43;;;12.80;99.90;;;;;;5022700;27;89531;-44
2023/09/23 00:21:07;;;;;;;4.13;3.83;;;12.70;99.90;;;;;;5023590;27;88609;-45
2023/09/23 00:23:34;;;;;;;6.03;5.00;;;12.70;99.90;;;;;;5023020;27;88844;-45
2023/09/23 00:26:01;;;;;;;5.03;4.55;;;12.70;99.90;;;;;;5023302;28;89704;-47
2023/09/23 00:28:28;;;;;;;7.53;5.20;;;12.70;99.90;;;;;;5023417;27;88608;-40
2023/09/23 00:30:53;;;;;;;8.02;4.68;;;12.60;99.90;;;;;;5022819;27;89819;-42
2023/09/23 00:33:19;;;;;;;4.43;4.03;;;12.70;99.90;;;;;;5023438;28;88199;-41
2023/09/23 00:35:45;;;;;;;7.63;5.90;;;12.60;99.90;;;;;;5023567;28;88766;-40
2023/09/23 00:38:17;;;;;;;6.35;5.10;;;12.70;99.90;;;;;;5023016;28;89630;-40
2023/09/23 00:40:44;;;;;;;7.88;5.70;;;12.70;99.90;;;;;;5023531;27;87963;-39
2023/09/23 00:43:15;;;;;;;5.70;5.20;;;12.60;99.90;;;;;;5020909;28;88968;-41
2023/09/23 00:45:48;;;;;;;4.57;4.07;;;12.60;99.90;;;;;;5022766;27;88634;-42
2023/09/23 00:48:18;;;;;;;4.85;4.35;;;12.60;99.90;;;;;;5022823;27;91313;-42
2023/09/23 00:50:46;;;;;;;4.15;3.85;;;12.60;99.90;;;;;;5023317;28;88854;-44
2023/09/23 00:53:13;;;;;;;5.20;4.05;;;12.60;99.90;;;;;;5022567;28;88946;-46
2023/09/23 00:55:47;;;;;;;4.78;4.35;;;12.60;99.90;;;;;;5023362;28;88848;-43
2023/09/23 00:58:17;;;;;;;3.88;3.53;;;12.60;99.90;;;;;;5022193;27;89241;-43
2023/09/23 01:00:43;;;;;;;5.13;4.15;;;12.60;99.90;;;;;;5023213;27;88209;-48
2023/09/23 01:03:13;;;;;;;4.63;3.90;;;12.60;99.90;;;;;;5022107;27;88189;-46
2023/09/23 01:05:43;;;;;;;4.32;3.97;;;12.50;99.90;;;;;;5021617;28;89859;-46
2023/09/23 01:08:18;;;;;;;4.63;4.22;;;12.50;99.90;;;;;;5021801;28;89778;-46
2023/09/23 01:10:45;;;;;;;5.78;5.18;;;12.50;99.90;;;;;;5023023;27;89749;-43
2023/09/23 01:13:11;;;;;;;4.55;4.13;;;12.50;99.90;;;;;;5021997;27;89971;-44
2023/09/23 01:15:40;;;;;;;4.43;3.92;;;12.50;99.90;;;;;;5022670;28;90855;-45
2023/09/23 01:18:14;;;;;;;5.57;4.95;;;12.50;99.90;;;;;;5022455;27;89080;-41
2023/09/23 01:20:42;;;;;;;4.95;4.50;;;12.50;99.90;;;;;;5022840;27;89144;-45
2023/09/23 01:23:10;;;;;;;4.10;3.20;;;12.40;99.90;;;;;;5022654;28;87987;-40
2023/09/23 01:25:36;;;;;;;;;;;12.40;99.90;;;;;;5022776;27;92086;-44
2023/09/23 01:28:12;;;;;;;6.72;4.53;;;12.40;99.90;;;;;;5023453;27;89731;-45
2023/09/23 01:30:43;;;;;;;4.63;4.13;;;12.30;99.90;;;;;;5022675;27;89300;-39
2023/09/23 01:33:10;;;;;;;5.47;4.75;;;12.30;99.90;;;;;;5021915;27;90111;-47
2023/09/23 01:35:36;;;;;;;4.40;4.07;;;12.30;99.90;;;;;;5022651;27;89992;-48
2023/09/23 01:38:03;;;;;;;4.28;3.85;;;12.30;99.90;;;;;;5022489;27;90257;-42
2023/09/23 01:40:30;;;;;;;3.92;3.60;;;12.30;99.90;;;;;;5022121;27;87931;-45
2023/09/23 01:42:57;;;;;;;3.30;3.00;;;12.30;99.90;;;;;;5022059;27;88865;-42
2023/09/23 01:45:26;;;;;;;3.55;3.25;;;12.40;99.90;;;;;;5022239;27;88343;-43
2023/09/23 01:47:52;;;;;;;;;;;12.30;99.90;;;;;;5022423;27;89848;-45
2023/09/23 01:50:18;;;;;;;4.38;3.42;;;12.30;99.90;;;;;;5024435;28;87970;-44
2023/09/23 01:52:45;;;;;;;3.47;3.17;;;12.30;99.90;;;;;;5022228;28;89201;-42
2023/09/23 01:55:12;;;;;;;5.38;3.10;;;12.30;99.90;;;;;;5021656;27;90176;-41
2023/09/23 01:57:40;;;;;;;3.55;2.85;;;12.30;99.90;;;;;;5021165;27;88855;-42
2023/09/23 02:00:08;;;;;;;4.05;3.40;;;12.30;99.90;;;;;;5021805;27;87867;-47
2023/09/23 02:02:33;;;;;;;3.25;2.92;;;12.20;99.90;;;;;;5022157;27;90176;-42
2023/09/23 02:04:59;;;;;;;3.65;2.63;;;12.30;99.90;;;;;;5021374;28;89793;-42
2023/09/23 02:07:29;;;;;;;3.10;2.80;;;12.30;99.90;;;;;;5021875;28;90219;-44
2023/09/23 02:09:55;;;;;;;3.15;2.47;;;12.30;99.90;;;;;;5021778;28;88739;-40
2023/09/23 02:12:21;;;;;;;3.17;2.97;;;12.20;99.90;;;;;;5022158;28;89967;-42
2023/09/23 02:14:46;;;;;;;4.80;3.08;;;12.20;99.90;;;;;;5020873;27;90294;-48
2023/09/23 02:17:12;;;;;;;2.63;2.42;;;12.20;99.90;;;;;;5021291;28;89570;-43
2023/09/23 02:19:38;;;;;;;3.47;3.17;;;12.20;99.90;;;;;;5021392;27;87680;-41
2023/09/23 02:22:07;;;;;;;4.38;3.97;;;12.20;99.90;;;;;;5021044;27;89576;-41
2023/09/23 02:24:36;;;;;;;4.15;3.08;;;12.20;99.90;;;;;;5021584;28;88348;-45
2023/09/23 02:27:03;;;;;;;4.38;3.92;;;12.30;99.90;;;;;;5021302;27;89828;-46
2023/09/23 02:29:30;;;;;;;4.18;3.78;;;12.30;99.90;;;;;;5021974;27;89906;-40
2023/09/23 02:31:56;;;;;;;4.75;4.25;;;12.20;99.90;;;;;;5021205;28;88446;-40
2023/09/23 02:34:22;;;;;;;4.63;3.95;;;12.20;99.90;;;;;;5020925;27;89512;-42
2023/09/23 02:36:51;;;;;;;4.93;4.40;;;12.20;99.90;;;;;;5021599;28;90274;-40
2023/09/23 02:39:20;;;;;;;2.28;1.80;;;12.30;99.90;;;;;;5021250;27;89277;-42
2023/09/23 02:41:50;;;;;;;4.97;4.47;;;12.20;99.90;;;;;;5021420;28;89732;-38
2023/09/23 02:44:20;;;;;;;6.68;4.80;;;12.30;99.90;;;;;;5020915;27;90098;-43
2023/09/23 02:46:46;;;;;;;5.97;4.65;;;12.30;99.90;;;;;;5021156;28;89606;-48
2023/09/23 02:49:13;;;;;;;5.45;4.95;;;12.30;99.90;;;;;;5020612;27;89803;-42
2023/09/23 02:51:38;;;;;;;5.00;4.60;;;12.30;99.90;;;;;;5021149;27;88684;-46
2023/09/23 02:54:05;;;;;;;6.28;4.65;;;12.30;99.90;;;;;;5020619;28;90630;-40
2023/09/23 02:56:33;;;;;;;4.75;4.15;;;12.30;99.90;;;;;;5020644;27;89140;-46
2023/09/23 02:58:59;;;;;;;6.47;4.72;;;12.40;99.90;;;;;;5021222;27;89054;-43
2023/09/23 03:01:25;;;;;;;5.60;4.88;;;12.30;99.90;;;;;;5020691;27;87665;-48
2023/09/23 03:03:51;;;;;;;5.55;5.05;;;12.30;99.90;;;;;;5019667;28;90046;-40
2023/09/23 03:06:18;;;;;;;6.32;5.05;;;12.30;99.90;;;;;;5020748;28;90120;-48
2023/09/23 03:08:47;;;;;;;5.13;4.63;;;12.30;99.90;;;;;;5021195;27;89572;-42
2023/09/23 03:11:18;;;;;;;5.38;4.88;;;12.30;99.90;;;;;;5021275;27;89142;-44
2023/09/23 03:13:44;;;;;;;8.40;5.43;;;12.20;99.90;;;;;;5020200;27;92108;-41
2023/09/23 03:16:12;;;;;;;6.65;5.80;;;12.20;99.90;;;;;;5020150;28;89513;-46
2023/09/23 03:21:22;;;;;;;5.47;4.97;;;12.20;99.90;;;;;;5020699;28;89983;-45
2023/09/23 03:23:48;;;;;;;6.35;5.80;;;12.10;99.90;;;;;;5020612;28;89587;-39
2023/09/23 03:26:18;;;;;;;6.00;5.40;;;12.10;99.90;;;;;;5020518;28;89586;-40
2023/09/23 03:28:46;;;;;;;6.63;6.00;;;12.10;99.90;;;;;;5020946;27;89770;-41
2023/09/23 03:31:14;;;;;;;8.57;6.25;;;12.00;99.90;;;;;;5020616;28;89488;-41
2023/09/23 03:33:42;;;;;;;7.05;6.35;;;12.00;99.90;;;;;;5020306;27;90250;-43
2023/09/23 03:36:14;;;;;;;6.32;5.72;;;12.00;99.90;;;;;;5021988;27;89673;-41
2023/09/23 03:38:39;;;;;;;8.57;7.53;;;11.90;99.90;;;;;;5023931;27;89055;-42
2023/09/23 03:41:05;;;;;;;7.75;6.90;;;11.80;99.90;;;;;;5024310;28;87620;-44
2023/09/23 03:43:31;;;;;;;9.30;7.63;;;11.80;99.90;;;;;;5023912;28;89535;-48
2023/09/23 03:45:56;;;;;;;7.60;6.90;;;11.80;99.90;;;;;;5023370;28;89662;-39
2023/09/23 03:48:22;;;;;;;8.57;6.90;;;11.70;99.90;;;;;;5024141;28;88202;-47
2023/09/23 03:50:52;;;;;;;9.32;7.95;;;11.70;99.90;;;;;;5024161;28;88127;-46
2023/09/23 03:53:21;;;;;;;8.43;7.32;;;11.70;99.90;;;;;;5023643;27;88687;-40
2023/09/23 03:55:49;;;;;;;9.95;8.23;;;11.70;99.90;;;;;;5022715;27;89665;-43
2023/09/23 03:58:17;;;;;;;9.48;6.55;;;11.70;99.90;;;;;;5024024;27;88003;-43
2023/09/23 04:00:43;;;;;;;8.77;7.90;;;11.70;99.90;;;;;;5023844;27;87571;-42
2023/09/23 04:03:10;;;;;;;10.02;9.02;;;11.60;99.90;;;;;;5022542;28;89956;-43
2023/09/23 04:05:36;;;;;;;9.35;8.35;;;11.60;99.90;;;;;;5023852;28;89386;-41
2023/09/23 04:08:02;;;;;;;9.65;8.75;;;11.60;99.90;;;;;;5023156;28;87977;-40
2023/09/23 04:10:28;;;;;;;14.18;8.98;;;11.50;99.90;;;;;;5023201;27;89305;-44
2023/09/23 04:12:54;;;;;;;9.30;7.85;;;11.50;99.90;;;;;;5022021;28;89299;-40
2023/09/23 04:15:26;;;;;;;12.27;10.05;;;11.50;99.90;;;;;;5023720;27;88864;-43
2023/09/23 04:17:52;;;;;;;11.23;10.02;;;11.50;99.90;;;;;;5022946;27;87707;-39
2023/09/23 04:20:18;;;;;;;13.95;10.48;;;11.50;99.90;;;;;;5021438;27;88325;-47
2023/09/23 04:22:46;;;;;;;7.10;5.97;;;11.50;99.90;;;;;;5022804;28;90167;-42
2023/09/23 04:25:13;;;;;;;13.40;11.48;;;11.40;99.90;;;;;;5022437;28;91044;-43
2023/09/23 04:27:39;;;;;;;9.03;6.37;;;11.40;99.90;;;;;;5022582;27;87968;-47
2023/09/23 04:30:11;;;;;;;14.85;12.20;;;11.40;99.90;;;;;;5022596;27;88090;-43
2023/09/23 04:32:40;;;;;;;13.05;11.77;;;11.40;99.90;;;;;;5022021;27;90295;-40
2023/09/23 04:35:09;;;;;;;16.25;12.95;;;11.40;99.90;;;;;;5021596;27;87805;-45
2023/09/23 04:37:38;;;;;;;14.88;11.88;;;11.40;99.90;;;;;;5022238;27;88129;-42
2023/09/23 04:40:09;;;;;;;14.85;11.18;;;11.40;99.90;;;;;;5021471;28;89025;-48
2023/09/23 04:42:35;;;;;;;14.95;13.30;;;11.40;99.90;;;;;;5021934;27;88990;-42
2023/09/23 04:45:02;;;;;;;17.48;12.82;;;11.40;99.90;;;;;;5022096;27;90138;-46
2023/09/23 04:47:28;;;;;;;13.75;12.27;;;11.40;99.90;;;;;;5022063;27;89441;-40
2023/09/23 04:49:55;;;;;;;15.93;13.50;;;11.40;99.90;;;;;;5021909;28;88206;-43
2023/09/23 04:52:20;;;;;;;16.67;13.02;;;11.40;99.90;;;;;;5021349;28;90198;-48
2023/09/23 04:54:46;;;;;;;14.20;12.65;;;11.40;99.90;;;;;;5021852;27;89209;-43
2023/09/23 04:57:14;;;;;;;15.02;13.52;;;11.40;99.90;;;;;;5022098;27;87625;-40
2023/09/23 04:59:40;;;;;;;14.07;12.57;;;11.40;99.90;;;;;;5022360;27;88048;-41
2023/09/23 05:02:06;;;;;;;23.42;14.15;;;11.40;99.90;;;;;;5020948;28;91072;-45
2023/09/23 05:04:31;;;;;;;16.50;14.80;;;11.30;99.90;;;;;;5022249;28;90317;-43
2023/09/23 05:06:57;;;;;;;15.73;13.27;;;11.30;99.90;;;;;;5022411;28;88830;-45
2023/09/23 05:09:25;;;;;;;17.25;12.07;;;11.30;99.90;;;;;;5022501;28;87966;-42
2023/09/23 05:11:51;;;;;;;16.23;13.55;;;11.30;99.90;;;;;;5021258;28;90368;-40
2023/09/23 05:14:17;;;;;;;15.63;13.32;;;11.30;99.90;;;;;;5021254;28;90193;-47
2023/09/23 05:16:42;;;;;;;14.88;13.43;;;11.20;99.90;;;;;;5021669;28;88544;-41
2023/09/23 05:19:09;;;;;;;18.17;14.13;;;11.20;99.90;;;;;;5021565;28;88443;-40
2023/09/23 05:21:35;;;;;;;10.25;7.97;;;11.20;99.90;;;;;;5020908;28;90298;-45
2023/09/23 05:24:02;;;;;;;17.98;14.95;;;11.20;99.90;;;;;;5022315;27;89766;-46
2023/09/23 05:26:27;;;;;;;19.33;15.13;;;11.10;99.90;;;;;;5021413;28;87781;-44
2023/09/23 05:28:53;;;;;;;16.25;14.25;;;11.10;99.90;;;;;;5026529;28;88837;-43
2023/09/23 05:31:18;;;;;;;15.93;9.95;;;11.10;99.90;;;;;;5021334;28;89878;-48
2023/09/23 05:33:44;;;;;;;14.65;8.85;;;11.10;99.90;;;;;;5023070;28;89750;-43
2023/09/23 05:36:10;;;;;;;21.45;16.75;;;11.10;99.90;;;;;;5024703;22;88331;-38
2023/09/23 05:38:36;;;;;;;20.40;16.40;;;11.10;99.90;;;;;;4982032;28;89593;-38
2023/09/23 05:41:05;;;;;;;22.83;19.38;;;11.20;99.90;;;;;;4980912;28;90097;-39
2023/09/23 05:43:31;;;;;;;16.30;10.85;;;11.20;99.90;;;;;;4982090;28;89214;-35
2023/09/23 05:45:56;;;;;;;20.77;18.23;;;11.20;99.90;;;;;;4981545;28;87568;-32
2023/09/23 05:48:22;;;;;;;23.30;18.52;;;11.20;99.90;;;;;;4982019;28;89609;-33
2023/09/23 05:50:49;;;;;;;27.00;21.75;;;11.20;99.90;;;;;;4981341;28;90356;-38
2023/09/23 05:53:15;;;;;;;33.65;23.40;;;11.30;99.90;;;;;;4981809;28;89590;-34
2023/09/23 05:55:40;;;;;;;26.83;23.38;;;11.30;99.90;;;;;;4980873;28;89953;-36
2023/09/23 05:58:06;;;;;;;33.30;23.83;;;11.30;99.90;;;;;;4980077;28;88351;-33
2023/09/23 06:00:32;;;;;;;31.05;24.25;;;11.30;99.90;;;;;;4980948;28;90471;-35
2023/09/23 06:02:58;;;;;;;34.28;25.60;;;11.40;99.90;;;;;;4980406;28;89613;-36
2023/09/23 06:05:24;;;;;;;19.45;13.13;;;11.40;99.90;;;;;;4981378;28;88480;-34
2023/09/23 06:07:49;;;;;;;34.65;27.08;;;11.40;99.90;;;;;;4981399;28;87763;-33
2023/09/23 06:10:15;;;;;;;35.03;26.83;;;11.40;99.90;;;;;;4979944;28;90162;-34
2023/09/23 06:12:41;;;;;;;34.63;27.45;;;11.40;99.90;;;;;;4981353;28;89062;-36
2023/09/23 06:15:08;;;;;;;36.03;28.50;;;11.40;99.90;;;;;;4980747;28;88011;-37
2023/09/23 06:17:35;;;;;;;18.35;14.18;;;11.50;99.90;;;;;;4981078;28;88943;-35
2023/09/23 06:20:01;;;;;;;35.67;29.45;;;11.50;99.90;;;;;;4980859;28;90401;-39
2023/09/23 06:22:27;;;;;;;36.65;28.40;;;11.50;99.90;;;;;;4979108;28;88719;-35
2023/09/23 06:24:54;;;;;;;39.08;29.00;;;11.50;99.90;;;;;;4980830;28;90102;-34
2023/09/23 06:27:20;;;;;;;36.35;28.92;;;11.60;99.90;;;;;;4981563;28;88363;-32
2023/09/23 06:29:46;;;;;;;40.13;29.55;;;11.60;99.90;;;;;;4979770;28;90675;-38
2023/09/23 06:32:12;;;;;;;40.63;30.25;;;11.60;99.90;;;;;;4983805;28;89443;-34
2023/09/23 06:34:38;;;;;;;35.92;29.45;;;11.70;99.90;;;;;;4980320;28;89053;-36
2023/09/23 06:37:04;;;;;;;37.05;31.02;;;11.70;99.90;;;;;;4980979;28;88136;-35
2023/09/23 06:39:30;;;;;;;36.83;29.15;;;11.70;99.90;;;;;;4980179;28;90223;-35
2023/09/23 06:41:56;;;;;;;32.88;27.80;;;11.80;99.90;;;;;;4980331;28;89949;-33
2023/09/23 06:44:21;;;;;;;35.42;27.80;;;11.80;99.90;;;;;;4980946;28;88782;-35
2023/09/23 06:46:49;;;;;;;27.38;15.32;;;11.90;99.90;;;;;;4980948;28;88400;-33
2023/09/23 06:49:15;;;;;;;36.13;28.10;;;11.90;99.90;;;;;;4979940;28;90073;-33
2023/09/23 06:51:41;;;;;;;33.63;26.65;;;11.90;99.90;;;;;;4980074;28;89781;-34
2023/09/23 06:54:07;;;;;;;35.10;26.52;;;12.00;99.90;;;;;;4979778;28;89404;-38
2023/09/23 06:56:34;;;;;;;37.35;28.55;;;12.00;99.90;;;;;;4974701;28;88913;-36
2023/09/23 06:59:00;;;;;;;35.78;28.77;;;12.10;99.90;;;;;;4977234;28;90629;-35
2023/09/23 07:01:26;;;;;;;37.10;27.70;;;12.10;99.90;;;;;;4977732;28;88414;-32
2023/09/23 07:03:52;;;;;;;33.53;27.17;;;12.10;99.90;;;;;;4976943;28;88575;-39
2023/09/23 07:06:17;;;;;;;34.10;26.75;;;12.20;99.90;;;;;;4978461;28;88888;-34
2023/09/23 07:08:43;;;;;;;34.40;26.42;;;12.20;99.90;;;;;;4976558;28;90384;-35
2023/09/23 07:11:12;;;;;;;33.70;26.63;;;12.30;99.90;;;;;;4977192;28;89561;-36
2023/09/23 07:13:38;;;;;;;21.05;13.88;;;12.30;99.90;;;;;;4977830;28;88835;-35
2023/09/23 07:16:05;;;;;;;36.60;26.48;;;12.40;99.90;;;;;;4978841;28;87813;-36
2023/09/23 07:18:31;;;;;;;35.58;25.27;;;12.40;99.90;;;;;;4977363;28;90076;-34
2023/09/23 07:20:57;;;;;;;25.40;17.90;;;12.40;99.90;;;;;;4978010;28;89653;-36
2023/09/23 07:23:23;;;;;;;35.60;27.85;;;12.50;99.90;;;;;;4978656;28;88898;-33
2023/09/23 07:25:49;;;;;;;30.15;25.77;;;12.60;99.90;;;;;;4978093;28;88329;-36
2023/09/23 07:28:14;;;;;;;33.30;24.63;;;12.60;99.90;;;;;;4976767;28;89442;-37
2023/09/23 07:30:40;;;;;;;33.42;25.75;;;12.70;99.90;;;;;;4978227;28;90436;-34
2023/09/23 07:33:05;;;;;;;28.63;17.70;;;12.80;99.90;;;;;;4977323;28;87936;-35
2023/09/23 07:35:32;;;;;;;21.52;15.30;;;12.80;99.90;;;;;;4977182;28;88880;-32
2023/09/23 07:38:02;;;;;;;29.88;24.92;;;13.00;99.90;;;;;;4976631;28;90310;-33
2023/09/23 07:40:29;;;;;;;21.98;15.40;;;13.10;99.90;;;;;;4975932;28;89734;-38
2023/09/23 07:42:55;;;;;;;30.23;25.25;;;13.20;99.90;;;;;;4977191;28;88940;-33
2023/09/23 07:45:20;;;;;;;29.73;23.63;;;13.30;99.90;;;;;;4976910;28;88797;-35
2023/09/23 07:47:46;;;;;;;28.10;22.92;;;13.30;99.90;;;;;;4976541;28;90431;-33
2023/09/23 07:50:12;;;;;;;33.97;25.00;;;13.30;99.90;;;;;;4977234;28;88517;-33
2023/09/23 07:52:38;;;;;;;32.45;25.75;;;13.30;99.90;;;;;;4977993;28;88583;-35
2023/09/23 07:55:04;;;;;;;28.88;22.52;;;13.40;99.90;;;;;;4976381;28;87665;-38
2023/09/23 07:57:32;;;;;;;31.05;23.77;;;13.40;99.90;;;;;;4976477;28;89744;-33
2023/09/23 07:59:57;;;;;;;27.70;22.63;;;13.40;99.90;;;;;;4976269;28;89731;-32
2023/09/23 08:02:23;;;;;;;28.15;22.73;;;13.50;99.90;;;;;;4976337;28;88925;-33
2023/09/23 08:04:49;;;;;;;32.25;24.52;;;13.60;99.90;;;;;;4976666;28;89309;-37
2023/09/23 08:07:14;;;;;;;26.38;22.13;;;13.60;99.90;;;;;;4975997;28;89912;-35
2023/09/23 08:09:40;;;;;;;33.53;23.67;;;13.70;99.90;;;;;;4976092;28;89831;-37
2023/09/23 08:12:06;;;;;;;29.40;23.58;;;13.90;99.90;;;;;;4976535;28;88455;-35
2023/09/23 08:14:31;;;;;;;25.77;22.05;;;13.90;99.90;;;;;;4974335;28;89350;-33
2023/09/23 08:16:57;;;;;;;27.77;22.20;;;13.90;99.90;;;;;;4975329;28;90397;-34
2023/09/23 08:19:23;;;;;;;28.50;22.80;;;14.10;99.90;;;;;;4975524;28;89593;-33
2023/09/23 08:21:49;;;;;;;22.67;19.67;;;14.20;99.90;;;;;;4977984;28;89023;-33
2023/09/23 08:24:14;;;;;;;26.98;20.75;;;14.20;99.90;;;;;;4979440;28;87991;-36
2023/09/23 08:26:40;;;;;;;26.13;20.85;;;14.20;99.90;;;;;;4978503;28;89066;-36
2023/09/23 08:29:06;;;;;;;27.35;21.00;;;14.30;99.90;;;;;;4978931;28;90110;-37
2023/09/23 08:31:31;;;;;;;23.73;19.83;;;14.30;99.90;;;;;;4979270;28;88017;-34
2023/09/23 08:33:58;;;;;;;23.58;19.73;;;14.30;99.90;;;;;;4980145;28;88270;-34
2023/09/23 08:36:24;;;;;;;21.95;19.63;;;14.30;99.90;;;;;;4977306;28;89394;-38
2023/09/23 08:38:50;;;;;;;21.48;18.13;;;14.30;99.90;;;;;;4978325;28;89549;-35
2023/09/23 08:41:19;;;;;;;21.23;17.95;;;14.30;99.90;;;;;;4979201;28;89576;-33
2023/09/23 08:43:46;;;;;;;24.52;18.75;;;14.50;99.90;;;;;;4980452;28;88970;-35
2023/09/23 08:46:13;;;;;;;21.10;17.88;;;14.50;99.90;;;;;;4979052;28;90178;-35
2023/09/23 08:48:39;;;;;;;19.50;17.00;;;14.70;99.90;;;;;;4979235;28;89825;-32
2023/09/23 08:51:10;;;;;;;24.02;18.80;;;14.60;99.90;;;;;;4979458;28;88527;-34
2023/09/23 08:53:38;;;;;;;19.65;17.42;;;14.70;99.90;;;;;;4978289;28;88439;-33
2023/09/23 08:56:07;;;;;;;22.95;19.00;;;14.60;99.90;;;;;;4978322;28;90300;-33
2023/09/23 08:58:33;;;;;;;20.05;16.73;;;14.60;99.90;;;;;;4978547;28;89280;-34
2023/09/23 09:00:59;;;;;;;19.90;16.92;;;14.70;99.90;;;;;;4979202;28;89191;-34
2023/09/23 09:03:25;;;;;;;19.73;17.70;;;14.80;99.90;;;;;;4978958;28;88732;-36
2023/09/23 09:05:52;;;;;;;22.40;17.40;;;14.80;99.90;;;;;;4979794;28;91298;-36
2023/09/23 09:08:18;;;;;;;20.42;18.00;;;14.90;99.90;;;;;;4978472;28;89802;-38
2023/09/23 09:10:44;;;;;;;25.80;16.50;;;15.10;99.90;;;;;;4979658;28;89400;-33
2023/09/23 09:13:10;;;;;;;19.92;17.70;;;15.20;99.90;;;;;;4978405;28;87937;-36
2023/09/23 09:15:37;;;;;;;22.33;15.82;;;15.30;99.90;;;;;;4978384;28;90158;-36
2023/09/23 09:18:04;;;;;;;19.92;16.05;;;15.20;99.90;;;;;;4978515;28;89598;-32
2023/09/23 09:20:30;;;;;;;20.73;16.08;;;15.10;99.90;;;;;;4979344;28;88165;-35
2023/09/23 09:22:56;;;;;;;18.23;16.23;;;15.20;99.90;;;;;;4978260;28;88345;-33
2023/09/23 09:25:22;;;;;;;17.95;16.15;;;15.10;99.90;;;;;;4977872;28;88992;-35
2023/09/23 09:27:48;;;;;;;18.58;15.80;;;15.10;99.90;;;;;;4978874;28;88333;-34
2023/09/23 09:30:14;;;;;;;16.33;14.40;;;14.90;99.90;;;;;;4978353;28;88613;-35
2023/09/23 09:32:44;;;;;;;15.70;14.02;;;14.90;99.90;;;;;;4978622;28;88820;-34
2023/09/23 09:35:13;;;;;;;17.77;15.02;;;14.80;99.90;;;;;;4978030;28;89273;-36
2023/09/23 09:37:45;;;;;;;16.58;14.82;;;14.90;99.90;;;;;;4977858;28;89647;-37
2023/09/23 09:40:17;;;;;;;17.10;15.00;;;14.90;99.90;;;;;;4978329;28;90250;-35
2023/09/23 09:42:57;;;;;;;18.25;16.15;;;15.00;99.90;;;;;;4978537;28;87906;-38
2023/09/23 09:45:23;;;;;;;17.38;14.27;;;15.20;99.90;;;;;;4977924;28;90743;-39
2023/09/23 09:47:51;;;;;;;17.73;14.73;;;15.20;99.90;;;;;;4979136;28;89828;-35
2023/09/23 09:50:17;;;;;;;;;;;15.10;99.90;;;;;;4979459;28;88688;-35
2023/09/23 09:52:46;;;;;;;18.05;14.63;;;15.10;99.90;;;;;;4980896;28;90406;-34
2023/09/23 09:55:18;;;;;;;16.42;14.30;;;15.20;99.90;;;;;;4978382;28;90181;-33
2023/09/23 09:57:45;;;;;;;19.92;13.15;;;15.30;99.90;;;;;;4978692;28;89800;-36
2023/09/23 10:00:27;;;;;;;14.20;12.63;;;15.50;99.90;;;;;;4977508;28;88458;-36
2023/09/23 10:03:01;;;;;;;14.27;11.90;;;15.80;99.90;;;;;;4978540;28;89340;-36
2023/09/23 10:05:46;;;;;;;11.18;10.18;;;16.00;99.90;;;;;;4978814;28;91428;-36
2023/09/23 10:08:24;;;;;;;14.07;11.13;;;16.10;99.90;;;;;;4957307;28;89529;-37
2023/09/23 10:10:58;;;;;;;13.27;11.98;;;16.30;99.90;;;;;;4958217;28;89455;-35
2023/09/23 10:13:27;;;;;;;13.05;11.82;;;16.40;99.90;;;;;;4958566;28;88411;-38
2023/09/23 10:16:11;;;;;;;11.32;10.27;;;16.40;99.90;;;;;;4955483;28;90063;-36
2023/09/23 10:18:39;;;;;;;12.77;11.57;;;16.50;99.90;;;;;;4958361;28;89691;-33
2023/09/23 10:21:06;;;;;;;14.27;12.13;;;16.60;99.90;;;;;;4958826;28;88387;-36
2023/09/23 10:23:36;;;;;;;13.55;12.32;;;16.70;99.90;;;;;;4958156;28;89408;-35
2023/09/23 10:26:18;;;;;;;12.23;10.88;;;16.80;99.90;;;;;;4958508;28;90204;-37
2023/09/23 10:29:04;;;;;;;10.50;9.40;;;16.70;99.90;;;;;;4957772;28;90564;-33
2023/09/23 10:31:34;;;;;;;10.73;8.88;;;16.70;99.90;;;;;;4960066;28;89360;-35
2023/09/23 10:34:06;;;;;;;15.85;9.68;;;16.80;99.90;;;;;;4959409;28;88863;-33
2023/09/23 10:36:33;;;;;;;10.15;9.15;;;16.70;99.90;;;;;;4958452;28;90026;-33
2023/09/23 10:39:00;;;;;;;9.60;8.27;;;16.70;99.90;;;;;;4958572;28;89283;-34
2023/09/23 10:41:34;;;;;;;9.65;8.65;;;16.70;99.90;;;;;;4959677;28;89334;-33
2023/09/23 10:44:02;;;;;;;9.70;8.80;;;16.80;99.90;;;;;;4958212;28;89399;-32
2023/09/23 10:46:29;;;;;;;10.60;9.50;;;16.90;99.90;;;;;;4959944;28;88199;-33
2023/09/23 10:48:54;;;;;;;10.10;8.80;;;16.90;99.90;;;;;;4958477;28;88106;-36
2023/09/23 10:51:21;;;;;;;10.10;7.75;;;17.00;99.90;;;;;;4959350;28;88576;-35
2023/09/23 10:53:49;;;;;;;8.68;7.78;;;17.00;99.90;;;;;;4958579;28;89135;-36
2023/09/23 10:56:15;;;;;;;7.80;7.20;;;17.00;99.90;;;;;;4958886;28;88887;-34
2023/09/23 10:58:42;;;;;;;7.93;7.20;;;17.00;99.90;;;;;;4958410;28;89723;-37
2023/09/23 11:01:07;;;;;;;11.93;7.38;;;17.00;99.90;;;;;;4958211;28;87678;-34
2023/09/23 11:03:43;;;;;;;7.60;6.95;;;16.90;99.90;;;;;;4960178;28;89297;-36
2023/09/23 11:06:08;;;;;;;8.05;6.38;;;16.90;99.90;;;;;;4957645;28;91293;-38
2023/09/23 11:08:34;;;;;;;6.55;6.05;;;17.00;99.90;;;;;;4959039;28;89558;-34
2023/09/23 11:11:00;;;;;;;6.68;6.07;;;17.00;99.90;;;;;;4958802;28;89596;-33
2023/09/23 11:13:26;;;;;;;7.43;6.72;;;16.90;99.90;;;;;;4958046;28;87657;-34
2023/09/23 11:15:52;;;;;;;7.30;5.60;;;16.80;99.90;;;;;;4958651;28;88494;-37
2023/09/23 11:18:18;;;;;;;7.88;7.13;;;16.70;99.90;;;;;;4959261;28;89688;-33
2023/09/23 11:20:45;;;;;;;6.32;5.72;;;16.70;99.90;;;;;;4958323;28;88060;-37
2023/09/23 11:23:11;;;;;;;7.22;6.00;;;16.80;99.90;;;;;;4959307;28;89925;-35
2023/09/23 11:25:46;;;;;;;7.03;6.32;;;16.80;99.90;;;;;;4958528;28;90372;-38
2023/09/23 11:28:22;;;;;;;9.75;5.50;;;16.80;99.90;;;;;;4958168;28;89948;-33
2023/09/23 11:30:49;;;;;;;5.78;5.28;;;17.00;99.90;;;;;;4957901;28;88067;-33
2023/09/23 11:33:15;;;;;;;9.82;7.03;;;17.00;99.90;;;;;;4959168;28;89999;-34
2023/09/23 11:35:42;;;;;;;6.82;6.22;;;17.00;99.90;;;;;;4957594;28;90463;-36
2023/09/23 11:38:09;;;;;;;6.45;5.85;;;16.90;99.90;;;;;;4959094;28;90439;-36
2023/09/23 11:40:35;;;;;;;6.90;5.45;;;17.00;99.90;;;;;;4958813;28;90166;-33
2023/09/23 11:43:01;;;;;;;9.93;5.13;;;17.00;99.90;;;;;;4958290;28;88282;-35
2023/09/23 11:45:27;;;;;;;5.85;5.07;;;16.90;99.90;;;;;;4958293;28;89145;-34
2023/09/23 11:47:55;;;;;;;5.65;5.22;;;16.70;99.90;;;;;;4958378;28;89107;-37
2023/09/23 11:50:21;;;;;;;7.45;5.15;;;16.60;99.90;;;;;;4958060;28;88066;-37
2023/09/23 11:52:46;;;;;;;7.57;4.97;;;16.60;99.90;;;;;;4959333;28;89442;-35
2023/09/23 11:55:12;;;;;;;5.38;4.88;;;16.60;99.90;;;;;;4958686;28;90951;-33
2023/09/23 11:57:40;;;;;;;7.07;6.15;;;16.60;99.90;;;;;;4961400;28;89080;-37
2023/09/23 12:00:09;;;;;;;6.75;5.65;;;16.60;99.90;;;;;;4962088;28;89342;-35
2023/09/23 12:02:39;;;;;;;6.80;6.10;;;16.60;99.90;;;;;;4962608;28;88770;-36
2023/09/23 12:05:07;;;;;;;7.03;5.95;;;16.80;99.90;;;;;;4961126;28;90134;-37
2023/09/23 12:07:33;;;;;;;6.33;5.77;;;17.00;99.90;;;;;;4962370;28;88122;-35
2023/09/23 12:10:00;;;;;;;6.68;6.07;;;17.20;99.90;;;;;;4962549;28;89386;-38
2023/09/23 12:12:26;;;;;;;6.95;6.35;;;17.30;99.90;;;;;;4960899;28;88597;-37
2023/09/23 12:14:53;;;;;;;6.65;5.28;;;17.30;99.90;;;;;;4961537;28;88752;-35
2023/09/23 12:17:19;;;;;;;5.65;4.70;;;17.20;99.90;;;;;;4961854;28;89660;-36
2023/09/23 12:19:44;;;;;;;6.00;5.40;;;17.30;99.90;;;;;;4960715;28;89775;-34
2023/09/23 12:22:12;;;;;;;6.05;5.50;;;17.30;99.90;;;;;;4960406;28;88467;-38
2023/09/23 12:24:44;;;;;;;5.65;5.15;;;17.40;99.90;;;;;;4961675;28;90161;-36
2023/09/23 12:27:11;;;;;;;5.53;5.03;;;17.40;99.90;;;;;;4961700;28;88402;-37
2023/09/23 12:29:37;;;;;;;5.78;5.28;;;17.40;99.90;;;;;;4960745;28;89129;-35
2023/09/23 12:32:03;;;;;;;5.18;4.65;;;17.50;99.90;;;;;;4961652;28;88130;-36
2023/09/23 12:34:30;;;;;;;5.78;5.38;;;17.60;99.90;;;;;;4963079;28;90588;-37
2023/09/23 12:36:56;;;;;;;7.57;5.07;;;17.60;99.90;;;;;;4979298;28;89136;-38
2023/09/23 12:39:22;;;;;;;5.47;3.35;;;17.60;99.90;;;;;;4981320;28;88678;-34
2023/09/23 12:41:49;;;;;;;4.03;3.60;;;17.70;99.90;;;;;;4980997;28;89154;-38